Time;durP1;ratioP1;P1;durP2;ratioP2;P2;SDS_P1;SDS_P2;PMS_P1;PMS_P2;Temp;Humidity;BMP_temperature;BMP_pressure;BME280_temperature;BME280_humidity;BME280_pressure;Samples;Min_cycle;Max_cycle;Signal;HPM_P1;HPM_P2
2022/10/24 00:01:21;;;;;;;4.93;2.50;;;;;;;7.31;86.28;101375.63;5054393;28;20036;-68
2022/10/24 00:03:48;;;;;;;4.88;2.92;;;;;;;7.32;87.16;101376.47;5052924;28;20564;-68
2022/10/24 00:06:14;;;;;;;10.40;3.40;;;;;;;7.21;87.13;101374.41;5054287;28;20090;-69
2022/10/24 00:08:41;;;;;;;5.03;3.40;;;;;;;7.25;87.67;101378.66;5053110;28;20190;-68
2022/10/24 00:11:21;;;;;;;3.97;2.95;;;;;;;7.21;87.40;101374.41;5051915;28;20037;-68
2022/10/24 00:13:47;;;;;;;4.85;3.38;;;;;;;7.16;87.72;101377.34;5054257;28;20033;-68
2022/10/24 00:16:13;;;;;;;5.30;2.67;;;;;;;7.27;88.30;101384.78;5053915;28;20508;-69
2022/10/24 00:18:38;;;;;;;3.53;2.80;;;;;;;7.25;87.71;101381.31;5053023;28;20040;-68
2022/10/24 00:21:05;;;;;;;4.70;2.92;;;;;;;7.30;87.66;101384.59;5054043;28;20060;-68
2022/10/24 00:23:30;;;;;;;5.03;3.00;;;;;;;7.38;86.76;101393.03;5053001;28;20028;-68
2022/10/24 00:26:00;;;;;;;3.25;2.15;;;;;;;7.43;86.87;101390.97;5054013;28;20446;-69
2022/10/24 00:28:27;;;;;;;4.32;3.03;;;;;;;7.41;87.21;101376.84;5052761;28;20021;-67
2022/10/24 00:30:52;;;;;;;5.28;3.42;;;;;;;7.42;86.70;101381.22;5052671;28;20478;-69
2022/10/24 00:33:18;;;;;;;5.53;2.92;;;;;;;7.47;86.43;101392.53;5053746;28;20032;-70
2022/10/24 00:35:45;;;;;;;3.15;2.42;;;;;;;7.51;86.13;101398.56;5052484;28;20033;-69
2022/10/24 00:38:11;;;;;;;4.03;2.65;;;;;;;7.50;86.04;101392.34;5053761;28;20442;-68
2022/10/24 00:40:37;;;;;;;5.43;2.83;;;;;;;7.47;86.19;101395.19;5052326;28;20029;-69
2022/10/24 00:43:03;;;;;;;3.55;2.83;;;;;;;7.36;87.13;101386.03;5053483;28;20029;-69
2022/10/24 00:45:53;;;;;;;5.45;2.85;;;;;;;7.34;86.97;101386.13;5052209;28;20144;-69
2022/10/24 00:48:19;;;;;;;5.38;2.90;;;;;;;7.42;87.13;101394.59;5053655;28;20035;-69
2022/10/24 00:50:47;;;;;;;4.95;2.78;;;;;;;7.49;86.83;101395.97;5052435;28;20036;-69
2022/10/24 00:53:14;;;;;;;4.28;2.80;;;;;;;7.37;86.69;101396.66;5051777;28;20072;-69
2022/10/24 00:55:39;;;;;;;4.38;2.70;;;;;;;7.42;86.05;101386.56;5051845;28;20029;-69
2022/10/24 00:58:07;;;;;;;3.75;2.85;;;;;;;7.43;85.84;101390.97;5051822;28;20561;-69
2022/10/24 01:00:33;;;;;;;3.83;2.85;;;;;;;7.53;85.27;101392.16;5053305;28;20036;-69
2022/10/24 01:02:59;;;;;;;3.45;2.90;;;;;;;7.44;85.94;101395.38;5053092;28;20028;-68
2022/10/24 01:05:30;;;;;;;4.35;2.70;;;;;;;7.36;85.94;101389.59;5053197;28;20025;-68
2022/10/24 01:08:08;;;;;;;3.45;2.60;;;;;;;7.39;85.65;101392.09;5051812;28;20390;-69
2022/10/24 01:10:45;;;;;;;4.18;2.33;;;;;;;7.42;85.49;101389.25;5052922;28;20040;-68
2022/10/24 01:13:36;;;;;;;5.38;2.17;;;;;;;7.44;85.57;101382.00;5051653;28;20106;-69
2022/10/24 01:16:28;;;;;;;3.03;2.22;;;;;;;7.51;85.16;101383.34;5051590;28;20064;-69
2022/10/24 01:19:07;;;;;;;4.57;2.22;;;;;;;7.50;84.79;101384.31;5053200;28;20032;-68
2022/10/24 01:21:36;;;;;;;4.43;2.08;;;;;;;7.46;85.33;101373.88;5051721;28;20040;-68
2022/10/24 01:24:50;;;;;;;3.20;1.95;;;;;;;7.45;85.69;101373.03;5052779;28;20078;-68
2022/10/24 01:27:43;;;;;;;4.65;2.65;;;;;;;7.45;85.51;101372.16;5050323;28;20029;-69
2022/10/24 01:30:11;;;;;;;5.28;2.63;;;;;;;7.47;85.83;101373.78;5051615;28;20029;-69
2022/10/24 01:32:46;;;;;;;2.10;1.88;;;;;;;7.38;86.58;101371.63;5053112;28;20478;-69
2022/10/24 01:35:32;;;;;;;;;;;;;;;7.44;86.98;101365.94;5052820;28;20035;-69
2022/10/24 01:38:04;;;;;;;2.47;1.75;;;;;;;7.52;86.27;101374.38;5052877;28;20340;-69
2022/10/24 01:40:35;;;;;;;3.92;1.83;;;;;;;7.55;86.11;101379.53;5052750;28;20116;-70
2022/10/24 01:43:08;;;;;;;5.28;2.63;;;;;;;7.35;87.46;101377.16;5051076;28;20036;-69
2022/10/24 01:45:37;;;;;;;3.10;2.17;;;;;;;7.36;87.60;101373.53;5052560;28;20073;-70
2022/10/24 01:48:07;;;;;;;2.53;2.08;;;;;;;7.39;87.81;101376.06;5052408;28;20029;-69
2022/10/24 01:50:37;;;;;;;4.20;2.03;;;;;;;7.44;87.78;101360.59;5052663;28;20096;-69
2022/10/24 01:53:04;;;;;;;5.13;2.13;;;;;;;7.38;87.62;101362.75;5052418;28;20053;-69
2022/10/24 01:55:31;;;;;;;2.92;2.08;;;;;;;7.45;87.39;101372.16;5051011;28;20067;-68
2022/10/24 01:57:58;;;;;;;3.92;2.47;;;;;;;7.47;87.39;101370.25;5052501;28;20037;-67
2022/10/24 02:00:24;;;;;;;3.97;2.05;;;;;;;7.50;87.39;101370.94;5052474;28;20029;-69
2022/10/24 02:03:20;;;;;;;2.30;1.50;;;;;;;7.41;87.46;101366.13;5051184;28;20025;-70
2022/10/24 02:05:58;;;;;;;3.72;2.00;;;;;;;7.43;88.50;101374.94;5052244;28;20279;-69
2022/10/24 02:08:37;;;;;;;3.42;2.20;;;;;;;7.45;88.29;101367.66;5051005;28;20121;-69
2022/10/24 02:11:06;;;;;;;5.60;2.20;;;;;;;7.52;88.08;101363.69;5050861;28;20029;-69
2022/10/24 02:13:38;;;;;;;1.98;1.77;;;;;;;7.57;88.12;101365.25;5052226;28;20028;-69
2022/10/24 02:16:04;;;;;;;3.78;1.85;;;;;;;7.38;88.84;101352.03;5050887;28;20036;-69
2022/10/24 02:18:31;;;;;;;2.60;1.80;;;;;;;7.52;88.54;101363.69;5050873;28;20060;-69
2022/10/24 02:21:03;;;;;;;2.30;1.70;;;;;;;7.55;88.10;101368.84;5052281;28;20033;-70
2022/10/24 02:23:42;;;;;;;2.80;2.00;;;;;;;7.56;87.41;101359.03;5051089;28;20029;-69
2022/10/24 02:26:13;;;;;;;5.00;2.00;;;;;;;7.49;88.92;101361.19;5050830;28;20033;-68
2022/10/24 02:28:44;;;;;;;2.58;1.77;;;;;;;7.45;89.03;101361.44;5050660;28;20086;-68
2022/10/24 02:31:16;;;;;;;2.50;1.52;;;;;;;7.37;90.00;101359.19;5051656;28;20032;-67
2022/10/24 02:33:45;;;;;;;4.72;2.22;;;;;;;7.30;91.10;101365.00;5050524;28;20029;-68
2022/10/24 02:36:15;;;;;;;2.42;1.60;;;;;;;7.31;91.46;101364.91;5054892;28;20029;-68
2022/10/24 02:38:43;;;;;;;3.63;2.20;;;;;;;7.32;92.39;101361.28;5056227;28;20111;-68
2022/10/24 02:41:14;;;;;;;2.75;1.75;;;;;;;7.32;91.68;101355.94;5055702;28;20121;-68
2022/10/24 02:43:41;;;;;;;2.90;2.05;;;;;;;7.37;92.06;101348.50;5054790;28;20021;-68
2022/10/24 02:46:10;;;;;;;3.17;1.85;;;;;;;7.34;91.72;101343.34;5055784;28;20036;-68
2022/10/24 02:48:41;;;;;;;2.40;1.83;;;;;;;7.34;91.63;101337.97;5056020;28;20107;-68
2022/10/24 02:51:08;;;;;;;2.67;2.17;;;;;;;7.33;91.97;101336.25;5056104;28;20040;-68
2022/10/24 02:53:35;;;;;;;4.10;1.73;;;;;;;7.33;92.09;101336.25;5054535;28;20049;-68
2022/10/24 02:56:02;;;;;;;2.53;1.70;;;;;;;7.35;91.56;101333.50;5055660;28;20438;-68
2022/10/24 02:58:27;;;;;;;2.45;1.60;;;;;;;7.43;90.86;101326.75;5055628;28;20037;-68
2022/10/24 03:00:53;;;;;;;2.53;2.10;;;;;;;7.38;90.77;101328.81;5055816;28;20036;-68
2022/10/24 03:03:18;;;;;;;2.38;1.70;;;;;;;7.47;91.48;101320.28;5054354;28;20095;-68
2022/10/24 03:05:44;;;;;;;2.65;1.40;;;;;;;7.54;90.84;101324.31;5054378;28;20535;-70
2022/10/24 03:08:11;;;;;;;2.53;1.38;;;;;;;7.59;90.31;101321.38;5054112;28;20091;-67
2022/10/24 03:10:37;;;;;;;2.70;1.55;;;;;;;7.52;90.19;101325.34;5054174;28;20036;-67
2022/10/24 03:13:03;;;;;;;1.90;1.27;;;;;;;7.43;91.08;101326.75;5055234;28;20029;-69
2022/10/24 03:15:29;;;;;;;1.75;1.15;;;;;;;7.57;90.84;101336.69;5053923;28;20489;-67
2022/10/24 03:17:54;;;;;;;1.48;1.20;;;;;;;7.61;90.88;101334.66;5055277;28;20029;-68
2022/10/24 03:20:20;;;;;;;3.78;1.52;;;;;;;7.61;91.04;101330.19;5055723;28;20045;-68
2022/10/24 03:22:47;;;;;;;1.33;1.08;;;;;;;7.63;90.93;101327.41;5056888;28;20083;-68
2022/10/24 03:25:12;;;;;;;2.67;1.27;;;;;;;7.63;90.52;101316.72;5057492;28;20398;-68
2022/10/24 03:27:38;;;;;;;1.77;1.08;;;;;;;7.57;90.79;101317.09;5061627;28;20037;-69
2022/10/24 03:30:04;;;;;;;1.33;0.95;;;;;;;7.61;90.61;101323.97;5056407;28;20036;-69
2022/10/24 03:32:32;;;;;;;3.30;1.10;;;;;;;7.63;90.72;101319.38;5053937;28;20490;-69
2022/10/24 03:34:58;;;;;;;3.35;1.15;;;;;;;7.63;89.92;101322.06;5053363;28;20057;-69
2022/10/24 03:37:23;;;;;;;2.47;1.48;;;;;;;7.46;91.38;101321.22;5053491;28;20087;-69
2022/10/24 03:39:49;;;;;;;3.33;1.23;;;;;;;7.59;91.33;101315.16;5053416;28;20389;-68
2022/10/24 03:42:15;;;;;;;2.50;1.27;;;;;;;7.62;91.35;101314.97;5055194;28;20037;-68
2022/10/24 03:44:40;;;;;;;2.95;0.90;;;;;;;7.63;90.91;101312.22;5054640;28;20057;-68
2022/10/24 03:47:06;;;;;;;2.28;1.02;;;;;;;7.66;90.58;101311.16;5055033;28;20241;-68
2022/10/24 03:49:32;;;;;;;2.13;1.13;;;;;;;7.61;90.33;101314.13;5053337;28;20040;-69
2022/10/24 03:51:58;;;;;;;1.83;1.20;;;;;;;7.59;90.50;101316.03;5054923;28;20028;-70
2022/10/24 03:54:24;;;;;;;2.88;1.00;;;;;;;7.61;90.23;101310.59;5052722;28;20059;-70
2022/10/24 03:56:49;;;;;;;1.35;0.82;;;;;;;7.68;89.26;101309.25;5054240;28;20029;-68
2022/10/24 03:59:15;;;;;;;1.20;0.80;;;;;;;7.68;89.79;101303.91;5054106;28;20389;-69
2022/10/24 04:01:41;;;;;;;2.50;0.95;;;;;;;7.67;89.91;101307.53;5054681;28;20029;-69
2022/10/24 04:04:07;;;;;;;2.72;1.02;;;;;;;7.71;89.55;101298.38;5054311;28;20036;-69
2022/10/24 04:06:32;;;;;;;1.55;0.57;;;;;;;7.71;88.60;101293.00;5053121;28;20112;-70
2022/10/24 04:08:58;;;;;;;1.45;0.80;;;;;;;7.65;89.28;101298.75;5052708;28;20543;-69
2022/10/24 04:11:25;;;;;;;1.23;0.95;;;;;;;7.66;88.80;101303.13;5052868;28;20076;-69
2022/10/24 04:13:51;;;;;;;0.70;0.63;;;;;;;7.59;89.40;101294.63;5054033;28;20052;-68
2022/10/24 04:16:18;;;;;;;1.20;0.75;;;;;;;7.71;89.16;101298.38;5053053;28;20117;-67
2022/10/24 04:18:44;;;;;;;4.78;0.73;;;;;;;7.72;88.71;101300.09;5054451;28;20033;-67
2022/10/24 04:21:10;;;;;;;3.45;0.85;;;;;;;7.73;88.62;101296.47;5052737;28;20029;-68
2022/10/24 04:23:39;;;;;;;0.60;0.50;;;;;;;7.73;88.81;101307.19;5053572;28;20402;-69
2022/10/24 04:26:09;;;;;;;0.82;0.32;;;;;;;7.70;88.38;101302.84;5053707;28;20028;-68
2022/10/24 04:28:35;;;;;;;2.00;0.50;;;;;;;7.74;88.81;101298.22;5052791;28;20366;-69
2022/10/24 04:31:01;;;;;;;2.13;0.90;;;;;;;7.73;89.22;101301.84;5052167;28;20102;-69
2022/10/24 04:33:26;;;;;;;0.55;0.47;;;;;;;7.64;89.09;101291.66;5053798;28;20037;-68
2022/10/24 04:35:52;;;;;;;2.20;0.70;;;;;;;7.75;89.29;101299.94;5052075;28;20036;-68
2022/10/24 04:38:18;;;;;;;0.43;0.40;;;;;;;7.74;89.73;101298.22;5052426;28;20029;-70
2022/10/24 04:40:47;;;;;;;0.95;0.60;;;;;;;7.75;88.83;101299.94;5053492;28;20025;-69
2022/10/24 04:43:12;;;;;;;2.08;0.60;;;;;;;7.72;89.08;101297.41;5053728;28;20033;-69
2022/10/24 04:45:38;;;;;;;1.20;0.52;;;;;;;7.64;89.69;101299.69;5052323;28;20114;-68
2022/10/24 04:48:04;;;;;;;1.58;0.50;;;;;;;7.63;89.72;101306.88;5052010;28;20033;-70
2022/10/24 04:50:30;;;;;;;0.73;0.50;;;;;;;7.68;89.49;101294.06;5051958;28;20021;-68
2022/10/24 04:52:55;;;;;;;1.98;1.00;;;;;;;7.77;89.52;101292.66;5051771;28;20045;-68
2022/10/24 04:55:21;;;;;;;0.93;0.55;;;;;;;7.72;89.68;101300.09;5053195;28;20025;-69
2022/10/24 04:57:47;;;;;;;1.48;0.50;;;;;;;7.75;89.72;101300.78;5051667;28;20028;-69
2022/10/24 05:00:13;;;;;;;0.55;0.40;;;;;;;7.78;88.84;101302.41;5051789;28;20116;-69
2022/10/24 05:02:38;;;;;;;1.08;0.30;;;;;;;7.78;89.66;101302.41;5051766;28;20143;-68
2022/10/24 05:05:05;;;;;;;0.70;0.30;;;;;;;7.79;89.03;101301.47;5052427;28;20032;-69
2022/10/24 05:07:31;;;;;;;0.43;0.22;;;;;;;7.85;89.05;101306.44;5051570;28;20035;-68
2022/10/24 05:09:56;;;;;;;1.15;0.40;;;;;;;7.71;89.08;101299.22;5052574;28;20109;-71
2022/10/24 05:12:22;;;;;;;0.47;0.30;;;;;;;7.83;89.35;101303.00;5051287;28;20464;-70
2022/10/24 05:14:48;;;;;;;1.95;0.63;;;;;;;7.80;88.71;101298.69;5051008;28;20035;-68
2022/10/24 05:17:13;;;;;;;1.05;0.38;;;;;;;7.81;88.37;101296.88;5052317;28;20048;-68
2022/10/24 05:19:39;;;;;;;1.20;0.17;;;;;;;7.85;88.11;101285.03;5051302;28;20025;-69
2022/10/24 05:22:05;;;;;;;2.42;0.30;;;;;;;7.78;88.32;101295.25;5051215;28;20120;-69
2022/10/24 05:24:31;;;;;;;0.63;0.20;;;;;;;7.78;88.18;101294.38;5051378;28;20405;-69
2022/10/24 05:26:57;;;;;;;0.90;0.30;;;;;;;7.86;88.29;101286.75;5052594;28;20371;-69
2022/10/24 05:29:24;;;;;;;1.15;0.30;;;;;;;7.79;88.04;101280.03;5051067;28;20025;-69
2022/10/24 05:31:50;;;;;;;0.68;0.20;;;;;;;7.77;88.42;101279.28;5050653;28;20029;-69
2022/10/24 05:34:16;;;;;;;1.88;0.43;;;;;;;7.77;88.28;101282.81;5050615;28;20032;-67
2022/10/24 05:36:42;;;;;;;0.65;0.30;;;;;;;7.73;87.75;101291.13;5052113;28;20401;-70
2022/10/24 05:39:08;;;;;;;1.70;0.30;;;;;;;7.81;87.63;101278.13;5051588;28;20082;-69
2022/10/24 05:41:34;;;;;;;1.13;0.10;;;;;;;7.84;87.78;101269.91;5050426;28;20115;-69
2022/10/24 05:43:59;;;;;;;2.50;0.20;;;;;;;7.84;87.23;101261.88;5050014;28;20025;-68
2022/10/24 05:46:25;;;;;;;2.20;0.32;;;;;;;7.83;86.85;101276.22;5050028;28;20028;-68
2022/10/24 05:48:50;;;;;;;0.73;0.43;;;;;;;7.82;86.66;101270.00;5051572;28;20116;-71
2022/10/24 05:51:16;;;;;;;0.32;0.15;;;;;;;7.76;86.55;101269.53;5050775;28;20036;-68
2022/10/24 05:53:42;;;;;;;1.48;0.35;;;;;;;7.83;86.55;101270.88;5049385;28;20061;-71
2022/10/24 05:56:07;;;;;;;2.97;0.50;;;;;;;7.83;86.35;101270.88;5049502;28;20036;-70
2022/10/24 05:58:33;;;;;;;1.40;0.25;;;;;;;7.87;86.56;101267.03;5049971;28;20041;-70
2022/10/24 06:00:59;;;;;;;2.65;0.63;;;;;;;7.81;85.96;101267.44;5049139;28;20471;-71
2022/10/24 06:03:25;;;;;;;2.28;0.45;;;;;;;7.81;86.00;101272.78;5049403;28;20127;-70
2022/10/24 06:05:51;;;;;;;0.60;0.40;;;;;;;7.81;86.18;101275.47;5049684;28;20486;-71
2022/10/24 06:08:17;;;;;;;1.00;0.55;;;;;;;7.80;86.06;101279.09;5048987;28;20489;-70
2022/10/24 06:10:49;;;;;;;1.92;0.25;;;;;;;7.88;85.16;101268.75;5048878;28;20031;-70
2022/10/24 06:13:16;;;;;;;1.30;0.30;;;;;;;7.89;85.24;101270.47;5049871;28;20028;-68
2022/10/24 06:15:43;;;;;;;1.45;0.50;;;;;;;7.98;84.83;101280.66;5049246;28;20052;-70
2022/10/24 06:18:09;;;;;;;1.45;0.52;;;;;;;7.95;84.86;101275.47;5048776;28;20087;-70
2022/10/24 06:20:36;;;;;;;3.80;0.40;;;;;;;7.97;85.26;101278.94;5050369;28;20025;-72
2022/10/24 06:23:01;;;;;;;4.45;0.40;;;;;;;8.02;84.23;101265.25;5048814;28;20059;-70
2022/10/24 06:25:27;;;;;;;1.33;0.32;;;;;;;7.93;84.85;101272.03;5049441;28;20062;-69
2022/10/24 06:27:52;;;;;;;1.90;0.30;;;;;;;8.03;84.44;101264.28;5048651;28;20111;-70
2022/10/24 06:30:18;;;;;;;1.17;0.40;;;;;;;7.94;84.65;101273.75;5049416;28;20544;-70
2022/10/24 06:32:44;;;;;;;0.70;0.40;;;;;;;8.00;84.09;101276.06;5050789;28;20033;-70
2022/10/24 06:35:12;;;;;;;1.95;0.30;;;;;;;7.97;84.08;101284.28;5048700;28;20033;-69
2022/10/24 06:37:38;;;;;;;2.00;0.50;;;;;;;8.02;84.21;101281.31;5050456;28;20036;-69
2022/10/24 06:40:04;;;;;;;3.80;0.40;;;;;;;8.00;83.87;101286.78;5050538;28;20389;-70
2022/10/24 06:42:31;;;;;;;8.30;1.10;;;;;;;8.05;83.59;101281.97;5050264;28;20079;-71
2022/10/24 06:44:57;;;;;;;1.17;0.30;;;;;;;8.07;83.55;101285.44;5050923;28;20040;-73
2022/10/24 06:47:23;;;;;;;1.90;0.30;;;;;;;8.00;83.54;101283.22;5048789;28;20017;-70
2022/10/24 06:49:48;;;;;;;2.08;0.40;;;;;;;8.05;84.11;101270.41;5050678;28;20033;-70
2022/10/24 06:52:14;;;;;;;0.25;0.15;;;;;;;8.14;83.29;101276.06;5048898;28;20029;-71
2022/10/24 06:54:40;;;;;;;5.35;0.43;;;;;;;8.03;83.83;101281.22;5048589;28;20522;-70
2022/10/24 06:57:06;;;;;;;0.20;0.20;;;;;;;8.07;84.12;101274.75;5050917;28;20041;-69
2022/10/24 06:59:33;;;;;;;1.10;0.30;;;;;;;8.08;83.00;101281.81;5050503;28;20029;-69
2022/10/24 07:01:58;;;;;;;2.10;0.38;;;;;;;8.05;83.60;101279.31;5048914;28;20098;-70
2022/10/24 07:04:24;;;;;;;1.77;0.30;;;;;;;8.03;83.53;101270.50;5050679;28;20029;-70
2022/10/24 07:06:50;;;;;;;1.13;0.40;;;;;;;8.11;83.22;101286.97;5049709;28;20032;-71
2022/10/24 07:09:16;;;;;;;1.65;0.30;;;;;;;8.07;83.92;101277.41;5048765;28;20489;-69
2022/10/24 07:11:44;;;;;;;0.30;0.10;;;;;;;8.27;82.76;101278.00;5050421;28;20036;-69
2022/10/24 07:14:11;;;;;;;2.72;0.38;;;;;;;8.15;83.07;101268.91;5049369;28;20474;-69
2022/10/24 07:16:37;;;;;;;0.47;0.28;;;;;;;8.15;83.14;101277.78;5049186;28;20140;-69
2022/10/24 07:19:04;;;;;;;1.45;0.70;;;;;;;8.26;82.67;101277.13;5048650;28;20428;-70
2022/10/24 07:21:32;;;;;;;2.30;0.20;;;;;;;8.30;82.66;101277.81;5052103;28;20551;-68
2022/10/24 07:23:58;;;;;;;1.30;0.20;;;;;;;8.38;82.87;101281.75;5054536;28;20121;-70
2022/10/24 07:26:26;;;;;;;3.30;0.40;;;;;;;8.37;82.67;101281.84;5053054;28;20544;-70
2022/10/24 07:28:54;;;;;;;2.50;0.30;;;;;;;8.42;82.63;101279.75;5052916;28;20040;-69
2022/10/24 07:31:22;;;;;;;2.00;0.28;;;;;;;8.43;83.05;101273.44;5052410;28;20025;-70
2022/10/24 07:33:49;;;;;;;1.52;0.60;;;;;;;8.36;83.43;101274.75;5052935;28;20033;-68
2022/10/24 07:36:19;;;;;;;2.40;0.40;;;;;;;8.44;82.87;101267.13;5052752;28;20025;-68
2022/10/24 07:38:46;;;;;;;2.20;0.30;;;;;;;8.46;83.12;101275.91;5052705;28;20119;-70
2022/10/24 07:41:12;;;;;;;2.40;0.50;;;;;;;8.53;82.25;101274.56;5054144;28;20043;-69
2022/10/24 07:43:38;;;;;;;3.30;0.40;;;;;;;8.46;82.46;101275.06;5052818;28;20632;-69
2022/10/24 07:46:09;;;;;;;1.20;0.20;;;;;;;8.56;81.86;101271.69;5052453;28;20457;-71
2022/10/24 07:48:36;;;;;;;3.95;0.40;;;;;;;8.44;81.90;101272.47;5052930;28;20036;-69
2022/10/24 07:51:07;;;;;;;2.05;0.30;;;;;;;8.44;81.97;101273.34;5051781;28;20481;-68
2022/10/24 07:53:33;;;;;;;4.53;0.47;;;;;;;8.57;81.59;101267.22;5053011;28;20442;-69
2022/10/24 07:55:59;;;;;;;1.48;0.20;;;;;;;8.67;81.20;101274.56;5052344;28;20040;-69
2022/10/24 07:58:26;;;;;;;2.05;0.30;;;;;;;8.63;80.86;101278.38;5052679;28;20056;-71
2022/10/24 08:00:51;;;;;;;1.60;0.45;;;;;;;8.60;81.01;101277.72;5052123;28;20021;-70
2022/10/24 08:03:17;;;;;;;2.17;0.65;;;;;;;8.61;81.68;101276.78;5054155;28;20496;-68
2022/10/24 08:05:43;;;;;;;2.67;0.50;;;;;;;8.75;80.37;101274.06;5053828;28;20036;-70
2022/10/24 08:08:09;;;;;;;1.15;0.30;;;;;;;8.79;80.97;101272.91;5052314;28;20465;-70
2022/10/24 08:10:35;;;;;;;2.03;0.73;;;;;;;8.60;81.02;101265.19;5052476;28;20454;-69
2022/10/24 08:13:02;;;;;;;0.77;0.30;;;;;;;8.93;80.51;101272.88;5053653;28;20461;-69
2022/10/24 08:15:28;;;;;;;0.75;0.20;;;;;;;8.87;80.75;101275.09;5052373;28;20509;-68
2022/10/24 08:17:54;;;;;;;1.00;0.30;;;;;;;9.02;79.79;101274.09;5053616;28;20115;-69
2022/10/24 08:20:25;;;;;;;1.83;0.68;;;;;;;9.07;80.55;101277.34;5052427;28;20478;-69
2022/10/24 08:22:52;;;;;;;2.78;0.80;;;;;;;9.01;80.55;101267.88;5053640;28;20021;-69
2022/10/24 08:25:17;;;;;;;2.35;0.30;;;;;;;8.99;80.62;101276.97;5051764;28;20021;-70
2022/10/24 08:27:43;;;;;;;0.55;0.40;;;;;;;9.05;80.77;101273.88;5053371;28;20031;-70
2022/10/24 08:30:09;;;;;;;2.20;0.40;;;;;;;9.09;80.54;101272.75;5053620;28;20453;-70
2022/10/24 08:32:37;;;;;;;1.65;0.30;;;;;;;9.04;81.26;101282.88;5051137;28;20033;-70
2022/10/24 08:35:03;;;;;;;2.42;0.30;;;;;;;8.84;82.27;101275.28;5051689;28;20028;-70
2022/10/24 08:37:29;;;;;;;5.38;0.50;;;;;;;8.99;81.70;101274.28;5051462;28;20056;-68
2022/10/24 08:39:54;;;;;;;2.33;0.47;;;;;;;9.09;81.08;101275.44;5051865;28;20118;-72
2022/10/24 08:42:22;;;;;;;3.67;0.80;;;;;;;9.13;81.58;101270.72;5050881;28;20037;-67
2022/10/24 08:44:48;;;;;;;5.75;0.70;;;;;;;9.14;82.00;101284.03;5053216;28;20521;-69
2022/10/24 08:47:32;;;;;;;4.05;0.47;;;;;;;9.18;81.87;101273.94;5051637;28;20033;-69
2022/10/24 08:50:03;;;;;;;1.08;0.30;;;;;;;9.20;82.56;101274.69;5051634;28;20037;-69
2022/10/24 08:53:01;;;;;;;2.47;0.63;;;;;;;9.17;82.82;101267.72;5051513;28;20139;-68
2022/10/24 08:55:38;;;;;;;2.50;0.50;;;;;;;9.12;83.19;101279.72;5029134;28;20056;-69
2022/10/24 08:58:06;;;;;;;3.83;0.30;;;;;;;9.16;83.50;101265.13;5051554;28;20036;-70
2022/10/24 09:00:38;;;;;;;5.57;1.08;;;;;;;9.07;83.61;101271.09;5051474;28;20025;-68
2022/10/24 09:03:26;;;;;;;0.22;0.20;;;;;;;9.15;83.96;101277.69;5053068;28;20044;-70
2022/10/24 09:06:00;;;;;;;4.25;0.85;;;;;;;9.13;84.52;101268.88;5051320;28;20111;-70
2022/10/24 09:08:42;;;;;;;1.85;0.60;;;;;;;9.21;84.63;101268.38;5052240;28;20028;-69
2022/10/24 09:11:15;;;;;;;5.30;0.90;;;;;;;9.16;84.92;101271.34;5051882;28;20033;-70
2022/10/24 09:13:41;;;;;;;2.38;0.47;;;;;;;9.17;85.14;101281.13;5050642;28;20137;-71
2022/10/24 09:16:16;;;;;;;4.35;0.80;;;;;;;9.14;84.93;101267.91;5052003;28;20107;-70
2022/10/24 09:18:43;;;;;;;;;;;;;;;9.23;85.59;101277.16;5051689;28;20130;-70
2022/10/24 09:21:13;;;;;;;3.28;0.63;;;;;;;9.24;85.31;101274.41;5050850;28;19920;-70
2022/10/24 09:23:40;;;;;;;4.00;0.50;;;;;;;9.18;84.95;101266.75;5050948;28;20378;-71
2022/10/24 09:26:14;;;;;;;3.72;1.17;;;;;;;9.21;84.57;101261.19;5050671;28;20025;-68
2022/10/24 09:28:41;;;;;;;1.50;0.80;;;;;;;9.30;84.17;101274.00;5050357;28;20032;-70
2022/10/24 09:31:20;;;;;;;2.80;0.80;;;;;;;9.21;85.15;101263.84;5050270;28;20048;-70
2022/10/24 09:33:49;;;;;;;0.70;0.22;;;;;;;9.24;85.04;101268.19;5052399;28;20048;-70
2022/10/24 09:36:17;;;;;;;9.70;1.63;;;;;;;9.32;84.48;101255.97;5050973;28;20120;-70
2022/10/24 09:38:44;;;;;;;4.40;1.55;;;;;;;9.33;84.68;101257.69;5051633;28;20108;-72
2022/10/24 09:41:12;;;;;;;4.20;0.82;;;;;;;9.48;84.79;101257.63;5051330;28;20086;-70
2022/10/24 09:43:46;;;;;;;3.67;0.30;;;;;;;9.44;84.91;101261.47;5051761;28;20515;-69
2022/10/24 09:46:43;;;;;;;3.20;0.68;;;;;;;9.45;85.61;101255.16;5051739;28;20083;-70
2022/10/24 09:49:15;;;;;;;1.92;0.57;;;;;;;9.47;85.22;101255.91;5044888;28;20068;-71
2022/10/24 09:51:46;;;;;;;4.75;0.80;;;;;;;9.46;86.07;101256.88;5051424;28;20037;-69
2022/10/24 09:54:18;;;;;;;7.10;1.52;;;;;;;9.53;86.05;101250.09;5049690;28;20441;-71
2022/10/24 09:56:46;;;;;;;4.40;0.55;;;;;;;9.46;85.80;101251.50;5051172;28;20025;-70
2022/10/24 09:59:30;;;;;;;3.90;0.65;;;;;;;9.26;86.73;101251.03;5049776;28;20029;-71
2022/10/24 10:02:21;;;;;;;1.98;0.63;;;;;;;9.20;86.33;101250.53;5050936;28;20381;-70
2022/10/24 10:05:01;;;;;;;3.88;0.90;;;;;;;9.11;87.35;101241.31;5049690;28;20512;-70
2022/10/24 10:07:31;;;;;;;2.42;0.60;;;;;;;9.34;87.35;101243.28;5049370;28;20124;-70
2022/10/24 10:10:00;;;;;;;1.55;0.60;;;;;;;9.51;86.61;101238.63;5049274;28;20049;-70
2022/10/24 10:12:28;;;;;;;4.55;0.90;;;;;;;9.62;85.74;101241.44;5049791;28;20079;-70
2022/10/24 10:14:54;;;;;;;5.57;1.10;;;;;;;9.54;85.39;101241.09;5051056;28;20056;-70
2022/10/24 10:17:26;;;;;;;4.18;1.55;;;;;;;9.45;85.70;101236.34;5050132;28;20370;-70
2022/10/24 10:19:54;;;;;;;4.82;1.20;;;;;;;9.45;85.42;101244.41;5050248;28;20033;-67
2022/10/24 10:22:30;;;;;;;2.13;0.80;;;;;;;9.64;85.14;101229.63;5048801;28;20103;-69
2022/10/24 10:24:57;;;;;;;4.22;0.63;;;;;;;9.49;85.18;101229.81;5050980;28;20025;-70
2022/10/24 10:27:35;;;;;;;1.20;0.32;;;;;;;9.72;84.68;101221.03;5049311;28;20025;-69
2022/10/24 10:30:20;;;;;;;4.97;0.85;;;;;;;9.60;85.13;101238.88;5048740;28;20113;-69
2022/10/24 10:33:19;;;;;;;2.40;1.05;;;;;;;9.55;85.42;101224.88;5049258;28;20577;-69
2022/10/24 10:36:06;;;;;;;3.30;0.65;;;;;;;9.56;85.62;101231.09;5049882;28;20029;-70
2022/10/24 10:38:52;;;;;;;3.30;0.80;;;;;;;9.53;86.03;101220.56;5049712;28;20025;-69
2022/10/24 10:41:25;;;;;;;3.03;0.80;;;;;;;9.63;86.03;101221.69;5049693;28;20490;-72
2022/10/24 10:44:05;;;;;;;4.03;0.50;;;;;;;9.62;85.72;101210.09;5050389;28;20025;-70
2022/10/24 10:46:49;;;;;;;1.58;0.63;;;;;;;9.69;86.30;101223.06;5050542;28;20029;-69
2022/10/24 10:49:33;;;;;;;3.45;0.63;;;;;;;9.68;86.10;101219.53;5049090;28;20540;-70
2022/10/24 10:52:11;;;;;;;1.38;0.65;;;;;;;9.63;86.41;101225.22;5050792;28;20392;-68
2022/10/24 10:54:56;;;;;;;1.42;0.30;;;;;;;9.70;86.67;101214.91;5049322;28;20405;-69
2022/10/24 10:57:28;;;;;;;;;;;;;;;9.65;86.32;101219.75;5054451;28;20032;-70
2022/10/24 11:00:06;;;;;;;1.58;0.40;;;;;;;9.64;86.62;101218.03;5054565;28;20245;-71
2022/10/24 11:03:09;;;;;;;1.48;0.40;;;;;;;9.66;85.99;101216.09;5053290;28;20021;-70
2022/10/24 11:05:48;;;;;;;1.52;0.30;;;;;;;9.59;87.63;101204.06;5053172;28;20098;-70
2022/10/24 11:08:37;;;;;;;2.53;0.88;;;;;;;9.50;87.40;101208.22;5053061;28;20025;-70
2022/10/24 11:11:08;;;;;;;1.98;0.60;;;;;;;9.50;87.85;101212.75;5052887;28;20029;-70
2022/10/24 11:13:40;;;;;;;2.03;0.45;;;;;;;9.52;88.26;101219.72;5054481;28;20109;-69
2022/10/24 11:16:16;;;;;;;3.42;0.45;;;;;;;9.50;88.27;101207.38;5053726;28;20095;-70
2022/10/24 11:18:47;;;;;;;3.55;0.60;;;;;;;9.53;88.33;101204.47;5054136;28;20611;-68
2022/10/24 11:21:15;;;;;;;1.70;0.77;;;;;;;9.49;89.10;101213.72;5053251;28;20029;-70
2022/10/24 11:23:52;;;;;;;4.63;0.93;;;;;;;9.53;88.77;101209.84;5054766;28;20028;-69
2022/10/24 11:26:38;;;;;;;4.03;1.05;;;;;;;9.50;88.58;101204.69;5054604;28;20040;-69
2022/10/24 11:29:42;;;;;;;4.50;0.60;;;;;;;9.53;88.55;101209.84;5054226;28;20044;-70
2022/10/24 11:32:16;;;;;;;2.97;0.65;;;;;;;9.59;88.55;101199.56;5047306;28;20043;-69
2022/10/24 11:34:49;;;;;;;0.93;0.15;;;;;;;9.63;86.95;101189.47;5054853;28;20051;-69
2022/10/24 11:37:26;;;;;;;1.85;0.40;;;;;;;9.68;87.29;101200.72;5054347;28;20033;-70
2022/10/24 11:40:17;;;;;;;5.18;0.75;;;;;;;9.59;86.64;101201.38;5054891;28;20386;-69
2022/10/24 11:42:46;;;;;;;1.00;0.30;;;;;;;9.68;86.52;101197.19;5053183;28;20120;-70
2022/10/24 11:45:19;;;;;;;1.70;0.50;;;;;;;9.71;86.62;101191.59;5053149;28;20087;-68
2022/10/24 11:48:02;;;;;;;2.17;0.40;;;;;;;9.72;86.70;101204.91;5054427;28;20082;-70